sensor_id;sensor_type;location;lat;lon;timestamp;P1;durP1;ratioP1;P2;durP2;ratioP2
21581;SDS011;10952;50.836;4.348;2023-05-14T00:00:24;94.47;;;50.33;;
21581;SDS011;10952;50.836;4.348;2023-05-14T00:02:49;91.20;;;51.07;;
21581;SDS011;10952;50.836;4.348;2023-05-14T00:05:15;98.37;;;51.33;;
21581;SDS011;10952;50.836;4.348;2023-05-14T00:07:41;96.47;;;53.13;;
21581;SDS011;10952;50.836;4.348;2023-05-14T00:10:07;99.20;;;51.17;;
21581;SDS011;10952;50.836;4.348;2023-05-14T00:12:33;101.93;;;51.23;;
21581;SDS011;10952;50.836;4.348;2023-05-14T00:14:58;95.50;;;51.50;;
21581;SDS011;10952;50.836;4.348;2023-05-14T00:17:24;105.83;;;51.20;;
21581;SDS011;10952;50.836;4.348;2023-05-14T00:19:50;108.10;;;55.13;;
21581;SDS011;10952;50.836;4.348;2023-05-14T00:22:16;112.33;;;54.47;;
21581;SDS011;10952;50.836;4.348;2023-05-14T00:24:42;105.13;;;55.67;;
21581;SDS011;10952;50.836;4.348;2023-05-14T00:27:07;105.93;;;54.13;;
21581;SDS011;10952;50.836;4.348;2023-05-14T00:29:34;96.67;;;54.50;;
21581;SDS011;10952;50.836;4.348;2023-05-14T00:31:59;100.90;;;52.23;;
21581;SDS011;10952;50.836;4.348;2023-05-14T00:34:25;104.27;;;52.73;;
21581;SDS011;10952;50.836;4.348;2023-05-14T00:36:51;113.37;;;55.77;;
21581;SDS011;10952;50.836;4.348;2023-05-14T00:39:16;103.20;;;53.93;;
21581;SDS011;10952;50.836;4.348;2023-05-14T00:41:42;103.13;;;54.33;;
21581;SDS011;10952;50.836;4.348;2023-05-14T00:44:08;107.03;;;55.77;;
21581;SDS011;10952;50.836;4.348;2023-05-14T00:46:33;110.83;;;54.63;;
21581;SDS011;10952;50.836;4.348;2023-05-14T00:48:59;105.10;;;55.07;;
21581;SDS011;10952;50.836;4.348;2023-05-14T00:51:25;99.93;;;54.03;;
21581;SDS011;10952;50.836;4.348;2023-05-14T00:53:51;101.67;;;52.33;;
21581;SDS011;10952;50.836;4.348;2023-05-14T00:56:18;105.47;;;54.27;;
21581;SDS011;10952;50.836;4.348;2023-05-14T00:58:43;103.87;;;52.93;;
21581;SDS011;10952;50.836;4.348;2023-05-14T01:01:09;106.23;;;51.90;;
21581;SDS011;10952;50.836;4.348;2023-05-14T01:03:36;102.17;;;52.97;;
21581;SDS011;10952;50.836;4.348;2023-05-14T01:11:35;108.87;;;52.50;;
21581;SDS011;10952;50.836;4.348;2023-05-14T01:16:57;112.27;;;55.40;;
21581;SDS011;10952;50.836;4.348;2023-05-14T01:19:30;115.40;;;54.53;;
21581;SDS011;10952;50.836;4.348;2023-05-14T01:21:58;110.50;;;54.27;;
21581;SDS011;10952;50.836;4.348;2023-05-14T01:24:23;108.60;;;55.33;;
21581;SDS011;10952;50.836;4.348;2023-05-14T01:26:49;118.93;;;54.60;;
21581;SDS011;10952;50.836;4.348;2023-05-14T01:29:19;119.13;;;54.40;;
21581;SDS011;10952;50.836;4.348;2023-05-14T01:31:48;107.80;;;54.10;;
21581;SDS011;10952;50.836;4.348;2023-05-14T01:34:16;119.87;;;56.63;;
21581;SDS011;10952;50.836;4.348;2023-05-14T01:36:45;118.47;;;56.67;;
21581;SDS011;10952;50.836;4.348;2023-05-14T01:39:12;127.87;;;56.67;;
21581;SDS011;10952;50.836;4.348;2023-05-14T01:41:39;114.07;;;56.00;;
21581;SDS011;10952;50.836;4.348;2023-05-14T01:44:09;122.63;;;56.67;;
21581;SDS011;10952;50.836;4.348;2023-05-14T01:46:35;125.00;;;55.87;;
21581;SDS011;10952;50.836;4.348;2023-05-14T01:49:01;123.70;;;57.37;;
21581;SDS011;10952;50.836;4.348;2023-05-14T01:51:27;137.27;;;59.60;;
21581;SDS011;10952;50.836;4.348;2023-05-14T01:53:54;122.37;;;58.40;;
21581;SDS011;10952;50.836;4.348;2023-05-14T01:56:22;124.17;;;57.10;;
21581;SDS011;10952;50.836;4.348;2023-05-14T01:58:48;121.80;;;59.83;;
21581;SDS011;10952;50.836;4.348;2023-05-14T02:01:18;112.53;;;58.03;;
21581;SDS011;10952;50.836;4.348;2023-05-14T02:03:46;119.23;;;54.63;;
21581;SDS011;10952;50.836;4.348;2023-05-14T02:06:14;116.50;;;54.23;;
21581;SDS011;10952;50.836;4.348;2023-05-14T02:08:48;117.90;;;58.70;;
21581;SDS011;10952;50.836;4.348;2023-05-14T02:11:16;120.23;;;56.00;;
21581;SDS011;10952;50.836;4.348;2023-05-14T02:13:42;113.80;;;52.87;;
21581;SDS011;10952;50.836;4.348;2023-05-14T02:16:08;112.50;;;55.97;;
21581;SDS011;10952;50.836;4.348;2023-05-14T02:18:34;120.13;;;56.77;;
21581;SDS011;10952;50.836;4.348;2023-05-14T02:21:01;110.77;;;53.03;;
21581;SDS011;10952;50.836;4.348;2023-05-14T02:23:28;116.63;;;52.70;;
21581;SDS011;10952;50.836;4.348;2023-05-14T02:25:56;117.97;;;55.40;;
21581;SDS011;10952;50.836;4.348;2023-05-14T02:28:24;109.27;;;51.87;;
21581;SDS011;10952;50.836;4.348;2023-05-14T02:30:51;107.90;;;52.47;;
21581;SDS011;10952;50.836;4.348;2023-05-14T02:33:24;117.47;;;54.90;;
21581;SDS011;10952;50.836;4.348;2023-05-14T02:35:51;111.67;;;54.50;;
21581;SDS011;10952;50.836;4.348;2023-05-14T02:38:18;115.23;;;52.53;;
21581;SDS011;10952;50.836;4.348;2023-05-14T02:40:45;118.67;;;54.50;;
21581;SDS011;10952;50.836;4.348;2023-05-14T02:43:12;113.63;;;55.00;;
21581;SDS011;10952;50.836;4.348;2023-05-14T02:45:41;103.67;;;52.90;;
21581;SDS011;10952;50.836;4.348;2023-05-14T02:48:09;108.77;;;53.07;;
21581;SDS011;10952;50.836;4.348;2023-05-14T02:50:37;108.57;;;53.40;;
21581;SDS011;10952;50.836;4.348;2023-05-14T02:53:03;101.27;;;49.47;;
21581;SDS011;10952;50.836;4.348;2023-05-14T02:55:28;107.20;;;54.07;;
21581;SDS011;10952;50.836;4.348;2023-05-14T02:57:56;115.33;;;53.57;;
21581;SDS011;10952;50.836;4.348;2023-05-14T03:00:23;108.53;;;51.47;;
21581;SDS011;10952;50.836;4.348;2023-05-14T03:02:52;115.63;;;55.40;;
21581;SDS011;10952;50.836;4.348;2023-05-14T03:05:20;117.70;;;54.80;;
21581;SDS011;10952;50.836;4.348;2023-05-14T03:07:47;116.73;;;54.57;;
21581;SDS011;10952;50.836;4.348;2023-05-14T03:10:18;114.83;;;51.73;;
21581;SDS011;10952;50.836;4.348;2023-05-14T03:12:45;119.00;;;54.97;;
21581;SDS011;10952;50.836;4.348;2023-05-14T03:15:16;114.87;;;53.73;;
21581;SDS011;10952;50.836;4.348;2023-05-14T03:17:44;119.80;;;55.37;;
21581;SDS011;10952;50.836;4.348;2023-05-14T03:20:11;116.13;;;55.53;;
21581;SDS011;10952;50.836;4.348;2023-05-14T03:22:37;120.73;;;54.73;;
21581;SDS011;10952;50.836;4.348;2023-05-14T03:25:04;117.50;;;55.23;;
21581;SDS011;10952;50.836;4.348;2023-05-14T03:27:31;124.20;;;54.53;;
21581;SDS011;10952;50.836;4.348;2023-05-14T03:29:59;109.93;;;52.60;;
21581;SDS011;10952;50.836;4.348;2023-05-14T03:32:26;113.10;;;53.13;;
21581;SDS011;10952;50.836;4.348;2023-05-14T03:34:55;114.13;;;54.47;;
21581;SDS011;10952;50.836;4.348;2023-05-14T03:37:23;113.70;;;53.63;;
21581;SDS011;10952;50.836;4.348;2023-05-14T03:39:50;117.37;;;56.87;;
21581;SDS011;10952;50.836;4.348;2023-05-14T03:42:17;116.63;;;55.50;;
21581;SDS011;10952;50.836;4.348;2023-05-14T03:44:46;117.63;;;54.50;;
21581;SDS011;10952;50.836;4.348;2023-05-14T03:47:16;118.97;;;55.57;;
21581;SDS011;10952;50.836;4.348;2023-05-14T03:49:44;114.83;;;54.93;;
21581;SDS011;10952;50.836;4.348;2023-05-14T03:52:13;115.73;;;55.33;;
21581;SDS011;10952;50.836;4.348;2023-05-14T03:54:40;119.87;;;55.33;;
21581;SDS011;10952;50.836;4.348;2023-05-14T03:57:08;115.50;;;54.67;;
21581;SDS011;10952;50.836;4.348;2023-05-14T03:59:34;111.40;;;53.63;;
21581;SDS011;10952;50.836;4.348;2023-05-14T04:02:00;118.23;;;55.17;;
21581;SDS011;10952;50.836;4.348;2023-05-14T04:04:27;116.73;;;57.00;;
21581;SDS011;10952;50.836;4.348;2023-05-14T04:06:54;117.27;;;54.37;;
21581;SDS011;10952;50.836;4.348;2023-05-14T04:09:22;122.23;;;54.97;;
21581;SDS011;10952;50.836;4.348;2023-05-14T04:11:49;116.10;;;52.20;;
21581;SDS011;10952;50.836;4.348;2023-05-14T04:14:15;121.27;;;53.30;;
21581;SDS011;10952;50.836;4.348;2023-05-14T04:16:41;115.30;;;53.90;;
21581;SDS011;10952;50.836;4.348;2023-05-14T04:19:07;122.63;;;52.67;;
21581;SDS011;10952;50.836;4.348;2023-05-14T04:21:34;109.20;;;53.30;;
21581;SDS011;10952;50.836;4.348;2023-05-14T04:24:02;111.10;;;52.20;;
21581;SDS011;10952;50.836;4.348;2023-05-14T04:26:28;109.30;;;52.00;;
21581;SDS011;10952;50.836;4.348;2023-05-14T04:28:54;109.77;;;52.00;;
21581;SDS011;10952;50.836;4.348;2023-05-14T04:31:20;102.93;;;50.97;;
21581;SDS011;10952;50.836;4.348;2023-05-14T04:33:47;95.17;;;49.50;;
21581;SDS011;10952;50.836;4.348;2023-05-14T04:36:15;105.27;;;52.30;;
21581;SDS011;10952;50.836;4.348;2023-05-14T04:38:44;106.43;;;50.80;;
21581;SDS011;10952;50.836;4.348;2023-05-14T04:41:14;106.40;;;52.00;;
21581;SDS011;10952;50.836;4.348;2023-05-14T04:43:42;101.40;;;50.30;;
21581;SDS011;10952;50.836;4.348;2023-05-14T04:46:08;108.47;;;50.87;;
21581;SDS011;10952;50.836;4.348;2023-05-14T04:48:36;105.60;;;52.03;;
21581;SDS011;10952;50.836;4.348;2023-05-14T04:51:02;103.97;;;51.37;;
21581;SDS011;10952;50.836;4.348;2023-05-14T04:53:28;104.23;;;50.17;;
21581;SDS011;10952;50.836;4.348;2023-05-14T04:55:55;108.23;;;52.57;;
21581;SDS011;10952;50.836;4.348;2023-05-14T04:58:22;116.47;;;51.63;;
21581;SDS011;10952;50.836;4.348;2023-05-14T05:00:52;104.60;;;50.47;;
21581;SDS011;10952;50.836;4.348;2023-05-14T05:03:18;100.50;;;48.17;;
21581;SDS011;10952;50.836;4.348;2023-05-14T05:05:46;109.40;;;51.17;;
21581;SDS011;10952;50.836;4.348;2023-05-14T05:08:12;113.80;;;54.30;;
21581;SDS011;10952;50.836;4.348;2023-05-14T05:10:39;116.63;;;52.87;;
21581;SDS011;10952;50.836;4.348;2023-05-14T05:13:06;100.83;;;50.00;;
21581;SDS011;10952;50.836;4.348;2023-05-14T05:15:32;113.27;;;53.17;;
21581;SDS011;10952;50.836;4.348;2023-05-14T05:17:59;116.10;;;52.60;;
21581;SDS011;10952;50.836;4.348;2023-05-14T05:20:26;109.13;;;49.93;;
21581;SDS011;10952;50.836;4.348;2023-05-14T05:22:52;103.57;;;50.77;;
21581;SDS011;10952;50.836;4.348;2023-05-14T05:25:20;112.83;;;50.40;;
21581;SDS011;10952;50.836;4.348;2023-05-14T05:27:47;110.07;;;49.30;;
21581;SDS011;10952;50.836;4.348;2023-05-14T05:30:14;104.47;;;49.90;;
21581;SDS011;10952;50.836;4.348;2023-05-14T05:32:41;101.97;;;49.77;;
21581;SDS011;10952;50.836;4.348;2023-05-14T05:35:08;105.43;;;50.27;;
21581;SDS011;10952;50.836;4.348;2023-05-14T05:37:35;106.27;;;50.47;;
21581;SDS011;10952;50.836;4.348;2023-05-14T05:40:02;101.60;;;50.10;;
21581;SDS011;10952;50.836;4.348;2023-05-14T05:42:30;97.97;;;46.80;;
21581;SDS011;10952;50.836;4.348;2023-05-14T05:44:56;107.60;;;49.50;;
21581;SDS011;10952;50.836;4.348;2023-05-14T05:47:24;110.67;;;52.07;;
21581;SDS011;10952;50.836;4.348;2023-05-14T05:49:51;107.60;;;49.13;;
21581;SDS011;10952;50.836;4.348;2023-05-14T05:52:18;109.80;;;52.70;;
21581;SDS011;10952;50.836;4.348;2023-05-14T05:54:44;108.67;;;52.07;;
21581;SDS011;10952;50.836;4.348;2023-05-14T05:57:10;104.13;;;48.73;;
21581;SDS011;10952;50.836;4.348;2023-05-14T05:59:36;106.50;;;51.30;;
21581;SDS011;10952;50.836;4.348;2023-05-14T06:02:03;99.27;;;50.37;;
21581;SDS011;10952;50.836;4.348;2023-05-14T06:04:30;89.97;;;49.50;;
21581;SDS011;10952;50.836;4.348;2023-05-14T06:06:58;101.27;;;47.10;;
21581;SDS011;10952;50.836;4.348;2023-05-14T06:09:24;95.23;;;45.63;;
21581;SDS011;10952;50.836;4.348;2023-05-14T06:11:50;93.20;;;46.93;;
21581;SDS011;10952;50.836;4.348;2023-05-14T06:14:16;103.93;;;49.80;;
21581;SDS011;10952;50.836;4.348;2023-05-14T06:16:43;94.13;;;47.03;;
21581;SDS011;10952;50.836;4.348;2023-05-14T06:19:11;103.10;;;50.40;;
21581;SDS011;10952;50.836;4.348;2023-05-14T06:21:38;90.57;;;47.27;;
21581;SDS011;10952;50.836;4.348;2023-05-14T06:24:05;96.10;;;47.60;;
21581;SDS011;10952;50.836;4.348;2023-05-14T06:26:32;97.97;;;46.17;;
21581;SDS011;10952;50.836;4.348;2023-05-14T06:29:00;90.07;;;43.43;;
21581;SDS011;10952;50.836;4.348;2023-05-14T06:31:28;86.27;;;42.00;;
21581;SDS011;10952;50.836;4.348;2023-05-14T06:33:54;87.07;;;44.87;;
21581;SDS011;10952;50.836;4.348;2023-05-14T06:36:22;84.40;;;41.93;;
21581;SDS011;10952;50.836;4.348;2023-05-14T06:38:48;98.10;;;44.80;;
21581;SDS011;10952;50.836;4.348;2023-05-14T06:41:14;93.10;;;45.73;;
21581;SDS011;10952;50.836;4.348;2023-05-14T06:43:41;90.53;;;45.40;;
21581;SDS011;10952;50.836;4.348;2023-05-14T06:46:07;81.67;;;42.63;;
21581;SDS011;10952;50.836;4.348;2023-05-14T06:48:32;82.33;;;42.93;;
21581;SDS011;10952;50.836;4.348;2023-05-14T06:50:58;79.17;;;41.10;;
21581;SDS011;10952;50.836;4.348;2023-05-14T06:53:24;82.90;;;42.23;;
21581;SDS011;10952;50.836;4.348;2023-05-14T06:55:50;79.87;;;41.27;;
21581;SDS011;10952;50.836;4.348;2023-05-14T06:58:15;83.90;;;42.80;;
21581;SDS011;10952;50.836;4.348;2023-05-14T07:00:41;87.50;;;41.97;;
21581;SDS011;10952;50.836;4.348;2023-05-14T07:03:07;82.57;;;41.47;;
21581;SDS011;10952;50.836;4.348;2023-05-14T07:05:33;85.23;;;42.27;;
21581;SDS011;10952;50.836;4.348;2023-05-14T07:07:58;81.33;;;42.33;;
21581;SDS011;10952;50.836;4.348;2023-05-14T07:10:24;86.07;;;42.90;;
21581;SDS011;10952;50.836;4.348;2023-05-14T07:12:50;85.50;;;43.90;;
21581;SDS011;10952;50.836;4.348;2023-05-14T07:15:16;81.27;;;40.57;;
21581;SDS011;10952;50.836;4.348;2023-05-14T07:17:42;81.37;;;40.10;;
21581;SDS011;10952;50.836;4.348;2023-05-14T07:20:07;81.07;;;41.80;;
21581;SDS011;10952;50.836;4.348;2023-05-14T07:22:34;84.67;;;40.97;;
21581;SDS011;10952;50.836;4.348;2023-05-14T07:24:59;82.50;;;43.23;;
21581;SDS011;10952;50.836;4.348;2023-05-14T07:27:26;81.97;;;40.00;;
21581;SDS011;10952;50.836;4.348;2023-05-14T07:29:52;84.40;;;41.43;;
21581;SDS011;10952;50.836;4.348;2023-05-14T07:32:18;78.13;;;40.40;;
21581;SDS011;10952;50.836;4.348;2023-05-14T07:34:43;82.13;;;41.73;;
21581;SDS011;10952;50.836;4.348;2023-05-14T07:37:10;87.23;;;41.83;;
21581;SDS011;10952;50.836;4.348;2023-05-14T07:39:36;80.90;;;42.10;;
21581;SDS011;10952;50.836;4.348;2023-05-14T07:42:03;85.03;;;41.90;;
21581;SDS011;10952;50.836;4.348;2023-05-14T07:44:29;86.57;;;43.17;;
21581;SDS011;10952;50.836;4.348;2023-05-14T07:46:54;80.60;;;43.27;;
21581;SDS011;10952;50.836;4.348;2023-05-14T07:49:20;85.33;;;42.70;;
21581;SDS011;10952;50.836;4.348;2023-05-14T07:51:46;77.67;;;42.93;;
21581;SDS011;10952;50.836;4.348;2023-05-14T07:54:11;82.20;;;42.10;;
21581;SDS011;10952;50.836;4.348;2023-05-14T07:56:37;80.50;;;42.20;;
21581;SDS011;10952;50.836;4.348;2023-05-14T07:59:03;73.93;;;41.50;;
21581;SDS011;10952;50.836;4.348;2023-05-14T08:01:28;69.60;;;39.40;;
21581;SDS011;10952;50.836;4.348;2023-05-14T08:03:55;77.43;;;40.60;;
21581;SDS011;10952;50.836;4.348;2023-05-14T08:06:20;70.17;;;40.47;;
21581;SDS011;10952;50.836;4.348;2023-05-14T08:08:47;69.87;;;40.43;;
21581;SDS011;10952;50.836;4.348;2023-05-14T08:11:13;75.13;;;39.70;;
21581;SDS011;10952;50.836;4.348;2023-05-14T08:13:39;70.93;;;40.17;;
21581;SDS011;10952;50.836;4.348;2023-05-14T08:16:05;74.90;;;41.00;;
21581;SDS011;10952;50.836;4.348;2023-05-14T08:18:31;74.93;;;40.73;;
21581;SDS011;10952;50.836;4.348;2023-05-14T08:20:57;62.53;;;38.07;;
21581;SDS011;10952;50.836;4.348;2023-05-14T08:23:23;64.33;;;36.93;;
21581;SDS011;10952;50.836;4.348;2023-05-14T08:25:48;65.77;;;38.57;;
21581;SDS011;10952;50.836;4.348;2023-05-14T08:28:14;64.10;;;38.00;;
21581;SDS011;10952;50.836;4.348;2023-05-14T08:30:40;63.50;;;35.97;;
21581;SDS011;10952;50.836;4.348;2023-05-14T08:33:05;61.97;;;36.23;;
21581;SDS011;10952;50.836;4.348;2023-05-14T08:35:31;58.63;;;35.97;;
21581;SDS011;10952;50.836;4.348;2023-05-14T08:37:57;57.53;;;32.93;;
21581;SDS011;10952;50.836;4.348;2023-05-14T08:40:23;63.70;;;36.50;;
21581;SDS011;10952;50.836;4.348;2023-05-14T08:42:49;62.03;;;35.07;;
21581;SDS011;10952;50.836;4.348;2023-05-14T08:45:18;57.93;;;34.53;;
21581;SDS011;10952;50.836;4.348;2023-05-14T08:47:49;55.13;;;32.97;;
21581;SDS011;10952;50.836;4.348;2023-05-14T08:50:15;56.47;;;31.77;;
21581;SDS011;10952;50.836;4.348;2023-05-14T08:52:42;57.30;;;33.53;;
21581;SDS011;10952;50.836;4.348;2023-05-14T08:55:08;51.03;;;32.07;;
21581;SDS011;10952;50.836;4.348;2023-05-14T08:57:36;47.47;;;32.03;;
21581;SDS011;10952;50.836;4.348;2023-05-14T09:00:02;55.93;;;33.50;;
21581;SDS011;10952;50.836;4.348;2023-05-14T09:02:32;50.97;;;32.17;;
21581;SDS011;10952;50.836;4.348;2023-05-14T09:04:59;53.63;;;32.90;;
21581;SDS011;10952;50.836;4.348;2023-05-14T09:07:26;54.47;;;32.37;;
21581;SDS011;10952;50.836;4.348;2023-05-14T09:09:52;52.70;;;31.43;;
21581;SDS011;10952;50.836;4.348;2023-05-14T09:12:18;47.10;;;31.73;;
21581;SDS011;10952;50.836;4.348;2023-05-14T09:14:46;46.07;;;31.13;;
21581;SDS011;10952;50.836;4.348;2023-05-14T09:17:13;46.33;;;29.00;;
21581;SDS011;10952;50.836;4.348;2023-05-14T09:19:39;47.07;;;30.87;;
21581;SDS011;10952;50.836;4.348;2023-05-14T09:22:10;44.30;;;30.77;;
21581;SDS011;10952;50.836;4.348;2023-05-14T09:24:37;47.23;;;31.10;;
21581;SDS011;10952;50.836;4.348;2023-05-14T09:27:03;41.93;;;29.33;;
21581;SDS011;10952;50.836;4.348;2023-05-14T09:29:30;47.43;;;30.07;;
21581;SDS011;10952;50.836;4.348;2023-05-14T09:31:57;47.47;;;29.67;;
21581;SDS011;10952;50.836;4.348;2023-05-14T09:34:29;47.00;;;30.13;;
21581;SDS011;10952;50.836;4.348;2023-05-14T09:36:57;46.27;;;28.20;;
21581;SDS011;10952;50.836;4.348;2023-05-14T09:39:23;43.90;;;29.37;;
21581;SDS011;10952;50.836;4.348;2023-05-14T09:41:50;39.43;;;27.17;;
21581;SDS011;10952;50.836;4.348;2023-05-14T09:44:17;40.40;;;27.17;;
21581;SDS011;10952;50.836;4.348;2023-05-14T09:46:44;38.67;;;26.60;;
21581;SDS011;10952;50.836;4.348;2023-05-14T09:49:09;36.33;;;26.30;;
21581;SDS011;10952;50.836;4.348;2023-05-14T09:51:36;42.80;;;27.80;;
21581;SDS011;10952;50.836;4.348;2023-05-14T09:54:02;38.00;;;25.40;;
21581;SDS011;10952;50.836;4.348;2023-05-14T09:56:30;36.57;;;25.70;;
21581;SDS011;10952;50.836;4.348;2023-05-14T09:58:57;39.10;;;25.10;;
21581;SDS011;10952;50.836;4.348;2023-05-14T10:01:22;36.23;;;26.20;;
21581;SDS011;10952;50.836;4.348;2023-05-14T10:03:49;38.63;;;27.63;;
21581;SDS011;10952;50.836;4.348;2023-05-14T10:06:17;45.00;;;27.97;;
21581;SDS011;10952;50.836;4.348;2023-05-14T10:08:46;38.47;;;30.55;;
21581;SDS011;10952;50.836;4.348;2023-05-14T10:11:17;45.67;;;27.70;;
21581;SDS011;10952;50.836;4.348;2023-05-14T10:14:01;37.60;;;26.03;;
21581;SDS011;10952;50.836;4.348;2023-05-14T10:16:32;34.37;;;26.60;;
21581;SDS011;10952;50.836;4.348;2023-05-14T10:19:11;38.83;;;27.37;;
21581;SDS011;10952;50.836;4.348;2023-05-14T10:21:40;35.97;;;24.33;;
21581;SDS011;10952;50.836;4.348;2023-05-14T10:24:08;35.30;;;24.07;;
21581;SDS011;10952;50.836;4.348;2023-05-14T10:26:36;38.43;;;24.37;;
21581;SDS011;10952;50.836;4.348;2023-05-14T10:29:04;31.50;;;24.23;;
21581;SDS011;10952;50.836;4.348;2023-05-14T10:31:46;31.10;;;22.73;;
21581;SDS011;10952;50.836;4.348;2023-05-14T10:34:33;33.27;;;21.07;;
21581;SDS011;10952;50.836;4.348;2023-05-14T10:37:08;29.73;;;21.77;;
21581;SDS011;10952;50.836;4.348;2023-05-14T10:39:58;28.95;;;21.45;;
21581;SDS011;10952;50.836;4.348;2023-05-14T10:42:31;34.60;;;22.70;;
21581;SDS011;10952;50.836;4.348;2023-05-14T10:45:04;32.03;;;23.53;;
21581;SDS011;10952;50.836;4.348;2023-05-14T10:47:32;35.05;;;24.25;;
21581;SDS011;10952;50.836;4.348;2023-05-14T10:50:01;34.45;;;24.02;;
21581;SDS011;10952;50.836;4.348;2023-05-14T10:52:29;31.27;;;21.83;;
21581;SDS011;10952;50.836;4.348;2023-05-14T10:54:58;32.03;;;23.25;;
21581;SDS011;10952;50.836;4.348;2023-05-14T10:57:27;28.75;;;21.30;;
21581;SDS011;10952;50.836;4.348;2023-05-14T10:59:55;32.30;;;22.90;;
21581;SDS011;10952;50.836;4.348;2023-05-14T11:02:24;31.15;;;22.40;;
21581;SDS011;10952;50.836;4.348;2023-05-14T11:04:57;30.52;;;21.73;;
21581;SDS011;10952;50.836;4.348;2023-05-14T11:07:26;32.38;;;21.50;;
21581;SDS011;10952;50.836;4.348;2023-05-14T11:12:29;29.40;;;23.17;;
21581;SDS011;10952;50.836;4.348;2023-05-14T11:14:57;30.77;;;22.95;;
21581;SDS011;10952;50.836;4.348;2023-05-14T11:17:27;32.42;;;22.08;;
21581;SDS011;10952;50.836;4.348;2023-05-14T11:19:54;30.52;;;21.50;;
21581;SDS011;10952;50.836;4.348;2023-05-14T11:22:21;30.92;;;22.33;;
21581;SDS011;10952;50.836;4.348;2023-05-14T11:24:47;29.13;;;19.85;;
21581;SDS011;10952;50.836;4.348;2023-05-14T11:27:14;28.30;;;20.75;;
21581;SDS011;10952;50.836;4.348;2023-05-14T11:29:44;29.38;;;21.00;;
21581;SDS011;10952;50.836;4.348;2023-05-14T11:32:10;28.52;;;20.77;;
21581;SDS011;10952;50.836;4.348;2023-05-14T11:34:37;27.50;;;20.70;;
21581;SDS011;10952;50.836;4.348;2023-05-14T11:37:03;26.70;;;19.48;;
21581;SDS011;10952;50.836;4.348;2023-05-14T11:39:32;31.15;;;20.02;;
21581;SDS011;10952;50.836;4.348;2023-05-14T11:42:01;27.50;;;18.70;;
21581;SDS011;10952;50.836;4.348;2023-05-14T11:44:29;29.40;;;20.90;;
21581;SDS011;10952;50.836;4.348;2023-05-14T11:46:56;27.33;;;20.38;;
21581;SDS011;10952;50.836;4.348;2023-05-14T11:49:22;29.30;;;19.67;;
21581;SDS011;10952;50.836;4.348;2023-05-14T11:51:49;32.53;;;20.33;;
21581;SDS011;10952;50.836;4.348;2023-05-14T11:54:20;26.85;;;20.00;;
21581;SDS011;10952;50.836;4.348;2023-05-14T11:56:49;26.83;;;20.30;;
21581;SDS011;10952;50.836;4.348;2023-05-14T11:59:16;30.63;;;20.27;;
21581;SDS011;10952;50.836;4.348;2023-05-14T12:01:43;27.80;;;21.88;;
21581;SDS011;10952;50.836;4.348;2023-05-14T12:04:11;30.55;;;20.98;;
21581;SDS011;10952;50.836;4.348;2023-05-14T12:06:38;28.63;;;21.17;;
21581;SDS011;10952;50.836;4.348;2023-05-14T12:09:04;37.97;;;21.27;;
21581;SDS011;10952;50.836;4.348;2023-05-14T12:11:30;28.70;;;20.42;;
21581;SDS011;10952;50.836;4.348;2023-05-14T12:13:59;30.85;;;19.73;;
21581;SDS011;10952;50.836;4.348;2023-05-14T12:16:29;29.33;;;19.58;;
21581;SDS011;10952;50.836;4.348;2023-05-14T12:19:00;28.42;;;19.92;;
21581;SDS011;10952;50.836;4.348;2023-05-14T12:21:27;29.50;;;19.70;;
21581;SDS011;10952;50.836;4.348;2023-05-14T12:23:59;26.42;;;20.55;;
21581;SDS011;10952;50.836;4.348;2023-05-14T12:26:25;30.40;;;19.80;;
21581;SDS011;10952;50.836;4.348;2023-05-14T12:29:00;28.00;;;19.15;;
21581;SDS011;10952;50.836;4.348;2023-05-14T12:31:31;28.67;;;18.50;;
21581;SDS011;10952;50.836;4.348;2023-05-14T12:33:58;27.00;;;18.80;;
21581;SDS011;10952;50.836;4.348;2023-05-14T12:36:24;27.83;;;21.38;;
21581;SDS011;10952;50.836;4.348;2023-05-14T12:38:52;30.38;;;20.95;;
21581;SDS011;10952;50.836;4.348;2023-05-14T12:41:31;33.30;;;22.98;;
21581;SDS011;10952;50.836;4.348;2023-05-14T12:43:57;25.55;;;19.88;;
21581;SDS011;10952;50.836;4.348;2023-05-14T12:46:24;29.83;;;20.30;;
21581;SDS011;10952;50.836;4.348;2023-05-14T12:48:51;32.35;;;21.20;;
21581;SDS011;10952;50.836;4.348;2023-05-14T12:51:17;31.20;;;19.87;;
21581;SDS011;10952;50.836;4.348;2023-05-14T12:53:43;35.53;;;21.07;;
21581;SDS011;10952;50.836;4.348;2023-05-14T12:56:09;28.80;;;21.03;;
21581;SDS011;10952;50.836;4.348;2023-05-14T12:58:35;27.77;;;20.20;;
21581;SDS011;10952;50.836;4.348;2023-05-14T13:01:01;28.73;;;20.53;;
21581;SDS011;10952;50.836;4.348;2023-05-14T13:03:27;29.33;;;21.87;;
21581;SDS011;10952;50.836;4.348;2023-05-14T13:05:53;32.93;;;21.70;;
21581;SDS011;10952;50.836;4.348;2023-05-14T13:08:22;32.90;;;21.20;;
21581;SDS011;10952;50.836;4.348;2023-05-14T13:10:51;30.47;;;20.77;;
21581;SDS011;10952;50.836;4.348;2023-05-14T13:13:18;33.93;;;21.40;;
21581;SDS011;10952;50.836;4.348;2023-05-14T13:15:44;33.63;;;21.57;;
21581;SDS011;10952;50.836;4.348;2023-05-14T13:18:11;27.87;;;20.00;;
21581;SDS011;10952;50.836;4.348;2023-05-14T13:20:37;28.60;;;20.37;;
21581;SDS011;10952;50.836;4.348;2023-05-14T13:23:03;28.87;;;19.27;;
21581;SDS011;10952;50.836;4.348;2023-05-14T13:25:29;26.97;;;18.57;;
21581;SDS011;10952;50.836;4.348;2023-05-14T13:27:54;25.00;;;18.73;;
21581;SDS011;10952;50.836;4.348;2023-05-14T13:30:20;27.27;;;19.00;;
21581;SDS011;10952;50.836;4.348;2023-05-14T13:32:46;28.27;;;19.80;;
21581;SDS011;10952;50.836;4.348;2023-05-14T13:35:12;25.60;;;17.30;;
21581;SDS011;10952;50.836;4.348;2023-05-14T13:37:38;28.77;;;16.83;;
21581;SDS011;10952;50.836;4.348;2023-05-14T13:40:04;27.10;;;16.97;;
21581;SDS011;10952;50.836;4.348;2023-05-14T13:42:33;25.60;;;16.00;;
21581;SDS011;10952;50.836;4.348;2023-05-14T13:44:59;25.17;;;16.13;;
21581;SDS011;10952;50.836;4.348;2023-05-14T13:47:25;26.40;;;17.57;;
21581;SDS011;10952;50.836;4.348;2023-05-14T13:49:52;24.80;;;17.00;;
21581;SDS011;10952;50.836;4.348;2023-05-14T13:52:18;19.90;;;16.73;;
21581;SDS011;10952;50.836;4.348;2023-05-14T13:54:44;25.73;;;18.27;;
21581;SDS011;10952;50.836;4.348;2023-05-14T13:57:10;20.23;;;15.70;;
21581;SDS011;10952;50.836;4.348;2023-05-14T13:59:36;22.53;;;15.43;;
21581;SDS011;10952;50.836;4.348;2023-05-14T14:02:01;22.20;;;15.83;;
21581;SDS011;10952;50.836;4.348;2023-05-14T14:04:27;26.87;;;15.67;;
21581;SDS011;10952;50.836;4.348;2023-05-14T14:06:53;24.60;;;16.47;;
21581;SDS011;10952;50.836;4.348;2023-05-14T14:09:20;23.90;;;16.33;;
21581;SDS011;10952;50.836;4.348;2023-05-14T14:11:45;20.50;;;15.97;;
21581;SDS011;10952;50.836;4.348;2023-05-14T14:14:12;30.27;;;18.13;;
21581;SDS011;10952;50.836;4.348;2023-05-14T14:16:37;22.70;;;16.60;;
21581;SDS011;10952;50.836;4.348;2023-05-14T14:19:03;21.53;;;16.30;;
21581;SDS011;10952;50.836;4.348;2023-05-14T14:21:29;23.07;;;15.07;;
21581;SDS011;10952;50.836;4.348;2023-05-14T14:23:55;23.53;;;14.77;;
21581;SDS011;10952;50.836;4.348;2023-05-14T14:26:21;24.50;;;15.97;;